createdAt,value
2023-11-28T00:01:43.625Z,76.10
2023-11-28T00:06:48.508Z,76.20
2023-11-28T00:11:51.957Z,76.30
2023-11-28T00:16:55.435Z,76.40
2023-11-28T00:22:00.210Z,76.40
2023-11-28T00:27:04.583Z,76.40
2023-11-28T00:32:09.045Z,76.40
2023-11-28T00:37:13.850Z,76.40
2023-11-28T00:42:17.998Z,77.10
2023-11-28T00:47:21.515Z,77.00
2023-11-28T00:52:26.533Z,76.60
2023-11-28T00:57:29.995Z,76.50
2023-11-28T01:02:33.565Z,76.10
2023-11-28T01:07:38.833Z,75.70
2023-11-28T01:12:42.591Z,75.60
2023-11-28T01:17:46.744Z,75.50
2023-11-28T01:22:51.595Z,75.40
2023-11-28T01:27:55.440Z,75.20
2023-11-28T01:32:58.909Z,75.10
2023-11-28T01:38:04.103Z,75.10
2023-11-28T01:43:07.589Z,75.10
2023-11-28T01:48:10.958Z,75.10
2023-11-28T01:53:16.202Z,75.10
2023-11-28T01:58:19.811Z,75.30
2023-11-28T02:03:28.737Z,75.30
2023-11-28T02:08:35.259Z,75.20
2023-11-28T02:13:38.937Z,75.10
2023-11-28T02:18:43.358Z,75.10
2023-11-28T02:23:48.269Z,75.10
2023-11-28T02:28:53.319Z,74.90
2023-11-28T02:33:56.753Z,74.90
2023-11-28T02:39:00.174Z,74.80
2023-11-28T02:44:05.265Z,74.70
2023-11-28T02:49:08.747Z,74.50
2023-11-28T02:54:12.198Z,74.40
2023-11-28T02:59:17.010Z,74.10
2023-11-28T03:04:20.528Z,73.80
2023-11-28T03:09:24.017Z,73.60
2023-11-28T03:14:28.790Z,73.50
2023-11-28T03:19:32.330Z,73.50
2023-11-28T03:24:35.868Z,73.40
2023-11-28T03:29:41.157Z,73.20
2023-11-28T03:34:45.089Z,73.30
2023-11-28T03:39:48.585Z,73.30
2023-11-28T03:44:53.427Z,73.20
2023-11-28T03:49:57.454Z,73.40
2023-11-28T03:55:00.922Z,73.00
2023-11-28T04:00:08.998Z,73.10
2023-11-28T04:05:13.622Z,72.90
2023-11-28T04:10:17.052Z,72.70
2023-11-28T04:15:21.845Z,72.50
2023-11-28T04:20:25.228Z,72.20
2023-11-28T04:25:28.825Z,72.00
2023-11-28T04:30:34.476Z,72.00
2023-11-28T04:35:38.327Z,72.10
2023-11-28T04:40:41.751Z,72.10
2023-11-28T04:45:46.550Z,72.20
2023-11-28T04:50:49.985Z,72.10
2023-11-28T04:55:53.537Z,72.40
2023-11-28T05:00:58.536Z,72.10
2023-11-28T05:06:02.076Z,71.90
2023-11-28T05:11:07.133Z,71.90
2023-11-28T05:16:12.512Z,72.60
2023-11-28T05:21:18.033Z,72.50
2023-11-28T05:26:27.715Z,72.10
2023-11-28T05:31:32.779Z,72.40
2023-11-28T05:36:36.719Z,72.60
2023-11-28T05:41:40.187Z,72.40
2023-11-28T05:46:45.094Z,72.50
2023-11-28T05:51:48.532Z,72.70
2023-11-28T05:56:51.983Z,72.70
2023-11-28T06:02:05.233Z,72.90
2023-11-28T06:07:10.332Z,73.10
2023-11-28T06:12:14.257Z,73.60
2023-11-28T06:17:19.079Z,73.60
2023-11-28T06:22:22.664Z,73.60
2023-11-28T06:27:26.745Z,74.00
2023-11-28T06:32:32.037Z,73.90
2023-11-28T06:37:36.410Z,74.30
2023-11-28T06:42:39.824Z,74.10
2023-11-28T06:47:44.717Z,74.50
2023-11-28T06:52:48.438Z,74.50
2023-11-28T06:57:51.813Z,74.70
2023-11-28T07:02:56.649Z,74.40
2023-11-28T07:08:00.256Z,74.80
2023-11-28T07:13:03.723Z,74.60
2023-11-28T07:18:10.108Z,74.70
2023-11-28T07:23:14.901Z,74.70
2023-11-28T07:28:18.433Z,74.80
2023-11-28T07:33:24.161Z,74.60
2023-11-28T07:38:27.916Z,74.70
2023-11-28T07:43:31.558Z,74.40
2023-11-28T07:48:36.288Z,74.00
2023-11-28T07:53:39.758Z,73.90
2023-11-28T07:58:43.193Z,73.70
2023-11-28T08:03:48.100Z,73.70
2023-11-28T08:08:51.782Z,73.70
2023-11-28T08:13:55.287Z,73.60
2023-11-28T08:19:00.097Z,73.80
2023-11-28T08:24:03.498Z,73.60
2023-11-28T08:29:06.943Z,73.80
2023-11-28T08:34:11.758Z,73.90
2023-11-28T08:39:16.315Z,74.70
2023-11-28T08:44:19.787Z,74.60
2023-11-28T08:49:24.819Z,74.60
2023-11-28T08:54:30.728Z,74.60
2023-11-28T08:59:34.105Z,74.50
2023-11-28T09:04:39.078Z,74.50
2023-11-28T09:09:42.770Z,74.60
2023-11-28T09:14:54.138Z,74.70
2023-11-28T09:20:01.803Z,74.90
2023-11-28T09:25:06.356Z,75.00
2023-11-28T09:30:11.350Z,75.00
2023-11-28T09:35:16.501Z,75.30
2023-11-28T09:40:20.380Z,72.60
2023-11-28T09:45:24.509Z,72.00
2023-11-28T09:50:30.667Z,69.80
2023-11-28T09:55:35.555Z,70.30
2023-11-28T10:00:40.529Z,68.10
2023-11-28T10:05:45.327Z,66.30
2023-11-28T10:10:50.367Z,64.30
2023-11-28T10:15:55.642Z,64.30
2023-11-28T10:21:00.668Z,64.30
2023-11-28T10:26:04.518Z,65.30
2023-11-28T10:31:08.605Z,66.40
2023-11-28T10:36:16.892Z,66.80
2023-11-28T10:41:20.412Z,67.30
2023-11-28T10:46:23.909Z,67.90
2023-11-28T10:51:32.348Z,68.40
2023-11-28T10:56:49.520Z,68.90
2023-11-28T11:01:53.437Z,69.50
2023-11-28T11:06:59.406Z,69.60
2023-11-28T11:12:05.435Z,70.00
2023-11-28T11:17:26.948Z,70.20
2023-11-28T11:22:38.944Z,70.40
2023-11-28T11:27:42.386Z,70.80
2023-11-28T11:32:46.189Z,70.90
2023-11-28T11:37:50.994Z,71.20
2023-11-28T11:42:54.710Z,71.40
2023-11-28T11:48:02.961Z,72.50
2023-11-28T11:53:10.727Z,71.30
2023-11-28T11:58:15.105Z,65.30
2023-11-28T12:03:19.924Z,61.80
2023-11-28T12:08:25.785Z,58.70
2023-11-28T12:13:29.448Z,57.70
2023-11-28T12:18:34.097Z,56.80
2023-11-28T12:23:38.955Z,56.00
2023-11-28T12:28:42.554Z,55.00
2023-11-28T12:33:46.770Z,54.10
2023-11-28T12:38:53.991Z,55.70
2023-11-28T12:44:01.338Z,55.40
2023-11-28T12:49:05.790Z,55.40
2023-11-28T12:54:15.474Z,56.10
2023-11-28T12:59:19.713Z,55.70
2023-11-28T13:04:23.786Z,56.30
2023-11-28T13:09:29.519Z,55.30
2023-11-28T13:14:33.109Z,55.60
2023-11-28T13:19:36.844Z,55.40
2023-11-28T13:24:41.615Z,55.60
2023-11-28T13:29:47.439Z,54.80
2023-11-28T13:34:51.033Z,54.40
2023-11-28T13:39:56.015Z,54.20
2023-11-28T13:44:59.405Z,54.70
2023-11-28T13:50:06.596Z,55.10
2023-11-28T13:55:12.325Z,54.60
2023-11-28T14:00:18.581Z,54.30
2023-11-28T14:05:22.292Z,54.10
2023-11-28T14:10:28.257Z,54.40
2023-11-28T14:15:32.214Z,53.90
2023-11-28T14:20:35.953Z,54.00
2023-11-28T14:25:40.747Z,53.80
2023-11-28T14:30:46.989Z,54.00
2023-11-28T14:35:50.496Z,53.90
2023-11-28T14:40:55.661Z,53.90
2023-11-28T14:45:59.147Z,56.80
2023-11-28T14:51:02.548Z,58.10
2023-11-28T14:56:09.181Z,59.00
2023-11-28T15:01:12.654Z,59.80
2023-11-28T15:06:16.349Z,60.50
2023-11-28T15:11:21.482Z,61.10
2023-11-28T15:16:25.836Z,61.80
2023-11-28T15:21:29.431Z,62.30
2023-11-28T15:26:34.305Z,62.70
2023-11-28T15:31:37.747Z,63.40
2023-11-28T15:36:41.208Z,63.60
2023-11-28T15:41:46.054Z,64.00
2023-11-28T15:46:49.721Z,64.50
2023-11-28T15:51:53.425Z,64.80
2023-11-28T15:56:58.207Z,65.10
2023-11-28T16:02:02.113Z,65.80
2023-11-28T16:07:05.921Z,66.60
2023-11-28T16:12:11.551Z,68.00
2023-11-28T16:17:15.240Z,68.60
2023-11-28T16:22:18.961Z,69.40
2023-11-28T16:27:23.774Z,69.70
2023-11-28T16:32:27.493Z,66.90
2023-11-28T16:37:31.048Z,64.50
2023-11-28T16:42:35.898Z,63.50
2023-11-28T16:47:39.530Z,63.40
2023-11-28T16:52:43.098Z,64.80
2023-11-28T16:57:48.137Z,65.60
2023-11-28T17:02:51.671Z,67.50
2023-11-28T17:07:55.168Z,68.10
2023-11-28T17:13:00.011Z,67.80
2023-11-28T17:18:03.695Z,67.90
2023-11-28T17:23:07.152Z,68.50
2023-11-28T17:28:11.936Z,68.60
2023-11-28T17:33:15.520Z,68.60
2023-11-28T17:38:19.443Z,70.60
2023-11-28T17:43:24.292Z,70.90
2023-11-28T17:48:27.907Z,70.90
2023-11-28T17:53:31.383Z,70.70
2023-11-28T17:58:36.281Z,70.70
2023-11-28T18:03:39.938Z,70.70
2023-11-28T18:08:43.756Z,70.60
2023-11-28T18:13:48.527Z,70.50
2023-11-28T18:18:54.977Z,70.80
2023-11-28T18:24:00.213Z,70.50
2023-11-28T18:29:05.009Z,70.10
2023-11-28T18:34:09.079Z,69.60
2023-11-28T18:44:17.393Z,68.90
2023-11-28T18:49:20.793Z,68.70
2023-11-28T18:54:24.327Z,68.50
2023-11-28T18:59:29.146Z,68.50
2023-11-28T19:04:32.721Z,68.40
2023-11-28T19:09:37.558Z,68.30
2023-11-28T19:14:43.808Z,68.30
2023-11-28T19:19:47.450Z,68.30
2023-11-28T19:24:50.929Z,68.40
2023-11-28T19:29:55.706Z,68.40
2023-11-28T19:34:59.138Z,68.50
2023-11-28T19:40:02.560Z,68.30
2023-11-28T19:45:09.536Z,68.30
2023-11-28T19:50:13.909Z,68.40
2023-11-28T19:55:17.646Z,68.40
2023-11-28T20:00:23.798Z,68.40
2023-11-28T20:05:28.564Z,68.60
2023-11-28T20:10:32.245Z,68.50
2023-11-28T20:15:37.930Z,68.70
2023-11-28T20:20:41.989Z,68.90
2023-11-28T20:25:46.468Z,69.10
2023-11-28T20:30:52.026Z,69.10
2023-11-28T20:35:56.814Z,68.90
2023-11-28T20:41:01.909Z,68.60
2023-11-28T20:46:07.521Z,68.50
2023-11-28T20:51:11.144Z,68.40
2023-11-28T20:56:15.944Z,68.30
2023-11-28T21:01:22.149Z,68.20
2023-11-28T21:06:25.846Z,68.20
2023-11-28T21:11:29.415Z,68.10
2023-11-28T21:16:34.210Z,68.00
2023-11-28T21:21:37.822Z,68.10
2023-11-28T21:26:44.073Z,68.00
2023-11-28T21:31:52.100Z,68.10
2023-11-28T21:36:55.755Z,68.20
2023-11-28T21:41:59.204Z,68.20
2023-11-28T21:47:07.245Z,68.20
2023-11-28T21:52:11.313Z,68.40
2023-11-28T21:57:14.818Z,68.70
2023-11-28T22:02:20.967Z,69.10
2023-11-28T22:07:26.257Z,69.40
2023-11-28T22:12:30.232Z,69.40
2023-11-28T22:17:35.341Z,69.40
2023-11-28T22:22:39.119Z,69.30
2023-11-28T22:27:42.522Z,69.50
2023-11-28T22:32:48.250Z,69.60
2023-11-28T22:37:54.546Z,69.50
2023-11-28T22:42:57.944Z,69.50
2023-11-28T22:48:02.990Z,69.40
2023-11-28T22:53:06.511Z,69.60
2023-11-28T22:58:10.083Z,70.40
2023-11-28T23:03:15.037Z,70.50
2023-11-28T23:08:18.501Z,70.70
2023-11-28T23:13:21.990Z,70.50
2023-11-28T23:18:27.281Z,70.20
2023-11-28T23:23:30.669Z,69.90
2023-11-28T23:28:34.093Z,69.60
2023-11-28T23:33:38.997Z,69.10
2023-11-28T23:38:42.463Z,69.50
2023-11-28T23:43:46.673Z,68.30
2023-11-28T23:48:53.509Z,68.00
2023-11-28T23:53:57.015Z,68.40
2023-11-28T23:59:00.615Z,67.30
